Orebro, Sweden

11:41 AM CET on February 12, 2016 (GMT +0100)
Orebro | | Change Station
CLOSE
Current Station
Airport
Location: Orebro,
Elevation: 187 ft
Nearby Weather Stations

Elev 187 ft 59.22 °N, 15.04 °E | Updated 21 minutes ago

Mostly Cloudy
Mostly Cloudy
30 °F
Feels Like 23 °F
N
7
Wind Variable Wind from WNW

Today
High -- | Low -- °F
--% Chance of Precip.
Yesterday
High -- | Low -- °F
Precip. -- in
Pressure 29.42 in
Visibility 6.2 miles
Clouds Mostly Cloudy 2200 ft
Windchill 23 °F
Dew Point 27 °F
Humidity 86%
Rainfall 0.00 in
Snow Depth Not available.
7:44 AM 4:44 PM
Waxing Crescent, 19% visible
METAR ESOE 121020Z 30006KT 270V330 9999 BKN022 M01/M03 Q0996
Pressure 29.42 in
Visibility 6.2 miles
Clouds Mostly Cloudy 2200 ft
Windchill 23 °F
Dew Point 27 °F
Humidity 86%
Rainfall 0.00 in
Snow Depth Not available.
7:44 AM 4:44 PM
Waxing Crescent, 19% visible
METAR ESOE 121020Z 30006KT 270V330 9999 BKN022 M01/M03 Q0996

10-Day Weather Forecast

Almanac

Astronomy

Feb. 12, 2016 Rise Set
Actual Time
Civil Twilight
Nautical Twilight
Astronomical Twilight
Moon
Length of Visible Light
Length of Day
Tomorrow will be .
, % of the Moon is Illuminated

Today's Extremes

Country Highs Country Lows

Community

WunderPhotos

Upload Photos

1,892,289 photos uploaded!

WunderBlog® & News

Nearby

Air Quality

  Air Quality AQ Index Pollutant
Not available.

Snow Depth

Station Depth Elevation

Earthquake Activity

City Distance Mag. Time & Date
Minimum magnitude displayed is 2.5.

Coastal Water Temperatures

Place Temperature

Stations

Nearby Weather Stations

Station Location Temp. Windchill Dew Point Humidity Wind Precip. Elev Updated Type